Hyundai Singapore — 5BZP3 — position and weather

sailwx.info

Track history (hours):
 
Tides and Currents Weather Stations Pressure Air Temp Water Temp Dewpoint Dewpoint Depression Visibility Wind Speed Wind Dir Waves Ship Positions

Hyundai Singapore

Last reported at 2017-Nov-30 17:49 UTC. Time now 2017-Dec-16 11:17 UTC.
Position N 41°18' E 140°11'.
Warning: this ship's position is 15 days out of date.

Length 305 m; draft 11.5 m.

Type: Other ship. MMSI: 212351000.

Date/timePositionNaut miles runAvg speedWind from/ knotsBaromVisibWave heightAir tempDewpointWater temp
2017-Nov-30 17:49N 41°18' E 140°11'516.4
2017-Nov-30 17:30N 41°21' E 140°16'816.4
2017-Nov-30 17:00N 41°26' E 140°25'816.8
2017-Nov-30 16:30N 41°30' E 140°34'815.5
2017-Nov-30 16:00N 41°35' E 140°43'815.4
2017-Nov-30 15:30N 41°38' E 140°52'714.3
2017-Nov-30 15:00N 41°39' E 141°01'815.7
2017-Nov-30 14:30N 41°41' E 141°11'917.5
2017-Nov-30 14:00N 41°42' E 141°23'918.2
2017-Nov-30 13:31N 41°44' E 141°35'  
Track history (hours):
 
Tides and Currents Weather Stations Pressure Air Temp Water Temp Dewpoint Dewpoint Depression Visibility Wind Speed Wind Dir Waves Ship Positions

Hyundai Singapore

Last reported at 2017-Nov-30 17:49 UTC. Time now 2017-Dec-16 11:17 UTC.
Position N 41°18' E 140°11'.
Warning: this ship's position is 15 days out of date.

Length 305 m; draft 11.5 m.

Type: Other ship. MMSI: 212351000.

Date/timePositionNaut miles runAvg speedWind from/ knotsBaromVisibWave heightAir tempDewpointWater temp
2017-Nov-30 17:49N 41°18' E 140°11'516.4
2017-Nov-30 17:30N 41°21' E 140°16'816.4
2017-Nov-30 17:00N 41°26' E 140°25'816.8
2017-Nov-30 16:30N 41°30' E 140°34'815.5
2017-Nov-30 16:00N 41°35' E 140°43'815.4
2017-Nov-30 15:30N 41°38' E 140°52'714.3
2017-Nov-30 15:00N 41°39' E 141°01'815.7
2017-Nov-30 14:30N 41°41' E 141°11'917.5
2017-Nov-30 14:00N 41°42' E 141°23'918.2
2017-Nov-30 13:31N 41°44' E 141°35'  

Dump ship's entire track history